sensor_id;sensor_type;location;lat;lon;timestamp;P1;durP1;ratioP1;P2;durP2;ratioP2
11171;SDS011;5642;50.830;12.082;2023-10-13T00:01:42;1.38;;;1.27;;
11171;SDS011;5642;50.830;12.082;2023-10-13T00:04:15;1.50;;;1.40;;
11171;SDS011;5642;50.830;12.082;2023-10-13T00:06:55;1.70;;;1.60;;
11171;SDS011;5642;50.830;12.082;2023-10-13T00:09:32;1.52;;;1.42;;
11171;SDS011;5642;50.830;12.082;2023-10-13T00:12:10;1.50;;;1.40;;
11171;SDS011;5642;50.830;12.082;2023-10-13T00:14:39;1.60;;;1.50;;
11171;SDS011;5642;50.830;12.082;2023-10-13T00:17:11;1.60;;;1.50;;
11171;SDS011;5642;50.830;12.082;2023-10-13T00:19:49;1.70;;;1.58;;
11171;SDS011;5642;50.830;12.082;2023-10-13T00:22:18;1.60;;;1.50;;
11171;SDS011;5642;50.830;12.082;2023-10-13T00:24:45;1.60;;;1.50;;
11171;SDS011;5642;50.830;12.082;2023-10-13T00:27:16;1.50;;;1.40;;
11171;SDS011;5642;50.830;12.082;2023-10-13T00:29:56;1.48;;;1.38;;
11171;SDS011;5642;50.830;12.082;2023-10-13T00:32:55;1.80;;;1.58;;
11171;SDS011;5642;50.830;12.082;2023-10-13T00:35:26;1.75;;;1.60;;
11171;SDS011;5642;50.830;12.082;2023-10-13T00:38:05;1.50;;;1.40;;
11171;SDS011;5642;50.830;12.082;2023-10-13T00:40:43;2.47;;;1.67;;
11171;SDS011;5642;50.830;12.082;2023-10-13T00:43:17;1.55;;;1.45;;
11171;SDS011;5642;50.830;12.082;2023-10-13T00:45:45;1.75;;;1.63;;
11171;SDS011;5642;50.830;12.082;2023-10-13T00:48:47;1.90;;;1.60;;
11171;SDS011;5642;50.830;12.082;2023-10-13T00:51:20;1.95;;;1.50;;
11171;SDS011;5642;50.830;12.082;2023-10-13T00:54:07;1.88;;;1.73;;
11171;SDS011;5642;50.830;12.082;2023-10-13T00:56:39;1.80;;;1.70;;
11171;SDS011;5642;50.830;12.082;2023-10-13T00:59:15;1.67;;;1.58;;
11171;SDS011;5642;50.830;12.082;2023-10-13T01:01:43;1.70;;;1.60;;
11171;SDS011;5642;50.830;12.082;2023-10-13T01:04:11;1.50;;;1.40;;
11171;SDS011;5642;50.830;12.082;2023-10-13T01:06:39;1.83;;;1.70;;
11171;SDS011;5642;50.830;12.082;2023-10-13T01:09:09;1.80;;;1.70;;
11171;SDS011;5642;50.830;12.082;2023-10-13T01:11:54;3.90;;;1.88;;
11171;SDS011;5642;50.830;12.082;2023-10-13T01:14:21;1.60;;;1.50;;
11171;SDS011;5642;50.830;12.082;2023-10-13T01:16:54;2.03;;;1.58;;
11171;SDS011;5642;50.830;12.082;2023-10-13T01:19:36;2.35;;;1.60;;
11171;SDS011;5642;50.830;12.082;2023-10-13T01:22:09;1.77;;;1.67;;
11171;SDS011;5642;50.830;12.082;2023-10-13T01:24:42;2.53;;;1.42;;
11171;SDS011;5642;50.830;12.082;2023-10-13T01:27:15;1.50;;;1.40;;
11171;SDS011;5642;50.830;12.082;2023-10-13T01:29:51;1.98;;;1.63;;
11171;SDS011;5642;50.830;12.082;2023-10-13T01:32:35;1.80;;;1.70;;
11171;SDS011;5642;50.830;12.082;2023-10-13T01:35:07;1.98;;;1.73;;
11171;SDS011;5642;50.830;12.082;2023-10-13T01:37:33;1.80;;;1.70;;
11171;SDS011;5642;50.830;12.082;2023-10-13T01:40:03;1.70;;;1.60;;
11171;SDS011;5642;50.830;12.082;2023-10-13T01:42:37;1.95;;;1.75;;
11171;SDS011;5642;50.830;12.082;2023-10-13T01:45:04;2.08;;;1.60;;
11171;SDS011;5642;50.830;12.082;2023-10-13T01:47:33;2.80;;;1.73;;
11171;SDS011;5642;50.830;12.082;2023-10-13T01:50:04;2.90;;;1.98;;
11171;SDS011;5642;50.830;12.082;2023-10-13T01:52:44;1.90;;;1.80;;
11171;SDS011;5642;50.830;12.082;2023-10-13T01:55:10;2.67;;;2.10;;
11171;SDS011;5642;50.830;12.082;2023-10-13T01:57:37;1.92;;;1.80;;
11171;SDS011;5642;50.830;12.082;2023-10-13T02:00:05;3.45;;;1.80;;
11171;SDS011;5642;50.830;12.082;2023-10-13T02:02:45;2.90;;;2.17;;
11171;SDS011;5642;50.830;12.082;2023-10-13T02:05:16;2.47;;;2.00;;
11171;SDS011;5642;50.830;12.082;2023-10-13T02:08:01;2.28;;;2.08;;
11171;SDS011;5642;50.830;12.082;2023-10-13T02:10:36;2.25;;;2.05;;
11171;SDS011;5642;50.830;12.082;2023-10-13T02:13:16;2.10;;;1.75;;
11171;SDS011;5642;50.830;12.082;2023-10-13T02:15:54;1.80;;;1.70;;
11171;SDS011;5642;50.830;12.082;2023-10-13T02:18:23;1.77;;;1.67;;
11171;SDS011;5642;50.830;12.082;2023-10-13T02:21:01;2.35;;;2.00;;
11171;SDS011;5642;50.830;12.082;2023-10-13T02:23:40;1.90;;;1.80;;
11171;SDS011;5642;50.830;12.082;2023-10-13T02:26:30;1.88;;;1.77;;
11171;SDS011;5642;50.830;12.082;2023-10-13T02:28:59;2.05;;;1.95;;
11171;SDS011;5642;50.830;12.082;2023-10-13T02:31:45;1.92;;;1.83;;
11171;SDS011;5642;50.830;12.082;2023-10-13T02:34:22;1.80;;;1.70;;
11171;SDS011;5642;50.830;12.082;2023-10-13T02:36:49;3.60;;;1.83;;
11171;SDS011;5642;50.830;12.082;2023-10-13T02:39:23;2.10;;;1.90;;
11171;SDS011;5642;50.830;12.082;2023-10-13T02:42:14;2.00;;;1.90;;
11171;SDS011;5642;50.830;12.082;2023-10-13T02:44:49;2.45;;;2.20;;
11171;SDS011;5642;50.830;12.082;2023-10-13T02:47:21;2.13;;;2.03;;
11171;SDS011;5642;50.830;12.082;2023-10-13T02:49:50;2.35;;;2.15;;
11171;SDS011;5642;50.830;12.082;2023-10-13T02:52:16;2.20;;;2.00;;
11171;SDS011;5642;50.830;12.082;2023-10-13T02:54:43;2.60;;;2.20;;
11171;SDS011;5642;50.830;12.082;2023-10-13T02:57:15;2.42;;;2.22;;
11171;SDS011;5642;50.830;12.082;2023-10-13T02:59:48;2.15;;;2.03;;
11171;SDS011;5642;50.830;12.082;2023-10-13T03:02:23;2.03;;;1.85;;
11171;SDS011;5642;50.830;12.082;2023-10-13T03:04:57;2.30;;;2.00;;
11171;SDS011;5642;50.830;12.082;2023-10-13T03:07:36;2.72;;;2.28;;
11171;SDS011;5642;50.830;12.082;2023-10-13T03:10:07;2.65;;;2.22;;
11171;SDS011;5642;50.830;12.082;2023-10-13T03:12:41;2.25;;;1.88;;
11171;SDS011;5642;50.830;12.082;2023-10-13T03:15:07;2.47;;;2.05;;
11171;SDS011;5642;50.830;12.082;2023-10-13T03:17:50;3.53;;;2.13;;
11171;SDS011;5642;50.830;12.082;2023-10-13T03:20:38;2.60;;;2.00;;
11171;SDS011;5642;50.830;12.082;2023-10-13T03:23:10;3.42;;;3.13;;
11171;SDS011;5642;50.830;12.082;2023-10-13T03:25:52;2.70;;;2.50;;
11171;SDS011;5642;50.830;12.082;2023-10-13T03:28:28;2.50;;;2.30;;
11171;SDS011;5642;50.830;12.082;2023-10-13T03:30:59;2.47;;;2.28;;
11171;SDS011;5642;50.830;12.082;2023-10-13T03:33:28;2.00;;;1.90;;
11171;SDS011;5642;50.830;12.082;2023-10-13T03:36:02;2.75;;;2.17;;
11171;SDS011;5642;50.830;12.082;2023-10-13T03:38:35;2.33;;;2.13;;
11171;SDS011;5642;50.830;12.082;2023-10-13T03:41:02;3.00;;;2.47;;
11171;SDS011;5642;50.830;12.082;2023-10-13T03:43:49;2.60;;;2.10;;
11171;SDS011;5642;50.830;12.082;2023-10-13T03:46:38;3.65;;;2.72;;
11171;SDS011;5642;50.830;12.082;2023-10-13T03:49:07;2.40;;;2.20;;
11171;SDS011;5642;50.830;12.082;2023-10-13T03:51:56;2.38;;;2.17;;
11171;SDS011;5642;50.830;12.082;2023-10-13T03:54:41;2.30;;;2.00;;
11171;SDS011;5642;50.830;12.082;2023-10-13T03:57:07;2.58;;;2.38;;
11171;SDS011;5642;50.830;12.082;2023-10-13T03:59:43;2.53;;;2.33;;
11171;SDS011;5642;50.830;12.082;2023-10-13T04:02:21;3.08;;;2.40;;
11171;SDS011;5642;50.830;12.082;2023-10-13T04:04:54;2.40;;;2.20;;
11171;SDS011;5642;50.830;12.082;2023-10-13T04:07:21;2.35;;;2.15;;
11171;SDS011;5642;50.830;12.082;2023-10-13T04:10:34;2.40;;;2.20;;
11171;SDS011;5642;50.830;12.082;2023-10-13T04:13:19;2.40;;;2.17;;
11171;SDS011;5642;50.830;12.082;2023-10-13T04:16:04;2.45;;;2.08;;
11171;SDS011;5642;50.830;12.082;2023-10-13T04:18:56;2.47;;;2.28;;
11171;SDS011;5642;50.830;12.082;2023-10-13T04:21:27;2.83;;;2.20;;
11171;SDS011;5642;50.830;12.082;2023-10-13T04:24:12;2.60;;;2.30;;
11171;SDS011;5642;50.830;12.082;2023-10-13T04:26:51;3.15;;;2.20;;
11171;SDS011;5642;50.830;12.082;2023-10-13T04:29:52;2.30;;;2.10;;
11171;SDS011;5642;50.830;12.082;2023-10-13T04:32:35;2.70;;;2.17;;
11171;SDS011;5642;50.830;12.082;2023-10-13T04:35:07;4.53;;;2.17;;
11171;SDS011;5642;50.830;12.082;2023-10-13T04:37:42;2.25;;;2.05;;
11171;SDS011;5642;50.830;12.082;2023-10-13T04:40:44;2.28;;;2.08;;
11171;SDS011;5642;50.830;12.082;2023-10-13T04:43:27;2.25;;;2.05;;
11171;SDS011;5642;50.830;12.082;2023-10-13T04:46:24;3.13;;;2.15;;
11171;SDS011;5642;50.830;12.082;2023-10-13T04:49:29;2.25;;;2.05;;
11171;SDS011;5642;50.830;12.082;2023-10-13T04:52:08;1.95;;;1.85;;
11171;SDS011;5642;50.830;12.082;2023-10-13T04:54:39;2.30;;;2.10;;
11171;SDS011;5642;50.830;12.082;2023-10-13T04:57:21;2.38;;;2.17;;
11171;SDS011;5642;50.830;12.082;2023-10-13T04:59:57;2.15;;;1.95;;
11171;SDS011;5642;50.830;12.082;2023-10-13T05:02:41;3.53;;;1.80;;
11171;SDS011;5642;50.830;12.082;2023-10-13T05:05:45;3.33;;;1.95;;
11171;SDS011;5642;50.830;12.082;2023-10-13T05:08:23;2.20;;;2.10;;
11171;SDS011;5642;50.830;12.082;2023-10-13T05:11:27;3.75;;;1.75;;
11171;SDS011;5642;50.830;12.082;2023-10-13T05:14:30;1.98;;;1.83;;
11171;SDS011;5642;50.830;12.082;2023-10-13T05:17:33;2.17;;;2.03;;
11171;SDS011;5642;50.830;12.082;2023-10-13T05:20:36;2.10;;;1.90;;
11171;SDS011;5642;50.830;12.082;2023-10-13T05:23:26;3.08;;;1.95;;
11171;SDS011;5642;50.830;12.082;2023-10-13T05:26:13;2.03;;;1.60;;
11171;SDS011;5642;50.830;12.082;2023-10-13T05:29:02;3.08;;;1.80;;
11171;SDS011;5642;50.830;12.082;2023-10-13T05:31:47;1.85;;;1.70;;
11171;SDS011;5642;50.830;12.082;2023-10-13T05:34:50;2.45;;;1.90;;
11171;SDS011;5642;50.830;12.082;2023-10-13T05:37:47;2.60;;;2.10;;
11171;SDS011;5642;50.830;12.082;2023-10-13T05:41:02;1.88;;;1.73;;
11171;SDS011;5642;50.830;12.082;2023-10-13T05:43:53;2.33;;;1.80;;
11171;SDS011;5642;50.830;12.082;2023-10-13T05:46:39;2.00;;;1.60;;
11171;SDS011;5642;50.830;12.082;2023-10-13T05:49:09;2.67;;;1.83;;
11171;SDS011;5642;50.830;12.082;2023-10-13T05:51:46;3.75;;;1.88;;
11171;SDS011;5642;50.830;12.082;2023-10-13T05:54:44;2.67;;;1.80;;
11171;SDS011;5642;50.830;12.082;2023-10-13T05:57:51;2.00;;;1.80;;
11171;SDS011;5642;50.830;12.082;2023-10-13T06:00:39;2.17;;;1.83;;
11171;SDS011;5642;50.830;12.082;2023-10-13T06:03:27;1.85;;;1.75;;
11171;SDS011;5642;50.830;12.082;2023-10-13T06:06:19;2.83;;;2.30;;
11171;SDS011;5642;50.830;12.082;2023-10-13T06:09:23;2.22;;;1.85;;
11171;SDS011;5642;50.830;12.082;2023-10-13T06:12:26;2.35;;;2.15;;
11171;SDS011;5642;50.830;12.082;2023-10-13T06:15:13;2.72;;;2.00;;
11171;SDS011;5642;50.830;12.082;2023-10-13T06:18:07;1.67;;;1.58;;
11171;SDS011;5642;50.830;12.082;2023-10-13T06:20:57;2.15;;;1.73;;
11171;SDS011;5642;50.830;12.082;2023-10-13T06:23:55;1.80;;;1.70;;
11171;SDS011;5642;50.830;12.082;2023-10-13T06:26:40;3.10;;;2.00;;
11171;SDS011;5642;50.830;12.082;2023-10-13T06:29:27;1.90;;;1.80;;
11171;SDS011;5642;50.830;12.082;2023-10-13T06:31:53;1.75;;;1.65;;
11171;SDS011;5642;50.830;12.082;2023-10-13T06:34:24;1.60;;;1.50;;
11171;SDS011;5642;50.830;12.082;2023-10-13T06:37:08;1.55;;;1.45;;
11171;SDS011;5642;50.830;12.082;2023-10-13T06:40:12;1.85;;;1.73;;
11171;SDS011;5642;50.830;12.082;2023-10-13T06:43:06;2.03;;;1.80;;
11171;SDS011;5642;50.830;12.082;2023-10-13T06:45:49;1.65;;;1.55;;
11171;SDS011;5642;50.830;12.082;2023-10-13T06:48:24;2.72;;;1.63;;
11171;SDS011;5642;50.830;12.082;2023-10-13T06:50:53;2.13;;;1.58;;
11171;SDS011;5642;50.830;12.082;2023-10-13T06:53:22;1.60;;;1.50;;
11171;SDS011;5642;50.830;12.082;2023-10-13T06:55:49;1.60;;;1.50;;
11171;SDS011;5642;50.830;12.082;2023-10-13T06:58:41;3.58;;;2.00;;
11171;SDS011;5642;50.830;12.082;2023-10-13T07:01:18;1.80;;;1.70;;
11171;SDS011;5642;50.830;12.082;2023-10-13T07:03:52;2.55;;;1.90;;
11171;SDS011;5642;50.830;12.082;2023-10-13T07:06:45;1.95;;;1.85;;
11171;SDS011;5642;50.830;12.082;2023-10-13T07:09:18;1.95;;;1.75;;
11171;SDS011;5642;50.830;12.082;2023-10-13T07:12:14;2.85;;;2.00;;
11171;SDS011;5642;50.830;12.082;2023-10-13T07:14:48;2.28;;;2.05;;
11171;SDS011;5642;50.830;12.082;2023-10-13T07:17:18;5.20;;;2.90;;
11171;SDS011;5642;50.830;12.082;2023-10-13T07:19:55;4.78;;;2.58;;
11171;SDS011;5642;50.830;12.082;2023-10-13T07:22:33;3.42;;;2.10;;
11171;SDS011;5642;50.830;12.082;2023-10-13T07:25:23;2.53;;;2.20;;
11171;SDS011;5642;50.830;12.082;2023-10-13T07:28:22;3.25;;;1.85;;
11171;SDS011;5642;50.830;12.082;2023-10-13T07:30:48;3.17;;;1.92;;
11171;SDS011;5642;50.830;12.082;2023-10-13T07:33:34;2.22;;;1.95;;
11171;SDS011;5642;50.830;12.082;2023-10-13T07:36:05;1.60;;;1.50;;
11171;SDS011;5642;50.830;12.082;2023-10-13T07:39:11;1.67;;;1.58;;
11171;SDS011;5642;50.830;12.082;2023-10-13T07:41:57;1.90;;;1.50;;
11171;SDS011;5642;50.830;12.082;2023-10-13T07:45:02;2.40;;;1.75;;
11171;SDS011;5642;50.830;12.082;2023-10-13T07:47:36;2.70;;;1.85;;
11171;SDS011;5642;50.830;12.082;2023-10-13T07:50:09;1.60;;;1.50;;
11171;SDS011;5642;50.830;12.082;2023-10-13T07:52:53;1.98;;;1.70;;
11171;SDS011;5642;50.830;12.082;2023-10-13T07:55:49;2.35;;;1.60;;
11171;SDS011;5642;50.830;12.082;2023-10-13T07:58:40;1.65;;;1.55;;
11171;SDS011;5642;50.830;12.082;2023-10-13T08:01:20;2.10;;;1.42;;
11171;SDS011;5642;50.830;12.082;2023-10-13T08:03:52;1.98;;;1.50;;
11171;SDS011;5642;50.830;12.082;2023-10-13T08:06:37;2.47;;;1.60;;
11171;SDS011;5642;50.830;12.082;2023-10-13T08:09:23;2.83;;;1.73;;
11171;SDS011;5642;50.830;12.082;2023-10-13T08:12:24;2.22;;;1.73;;
11171;SDS011;5642;50.830;12.082;2023-10-13T08:14:53;2.72;;;1.83;;
11171;SDS011;5642;50.830;12.082;2023-10-13T08:17:44;1.50;;;1.40;;
11171;SDS011;5642;50.830;12.082;2023-10-13T08:20:24;3.15;;;1.60;;
11171;SDS011;5642;50.830;12.082;2023-10-13T08:23:13;1.95;;;1.80;;
11171;SDS011;5642;50.830;12.082;2023-10-13T08:25:40;1.80;;;1.63;;
11171;SDS011;5642;50.830;12.082;2023-10-13T08:28:31;2.95;;;1.98;;
11171;SDS011;5642;50.830;12.082;2023-10-13T08:31:05;2.45;;;1.95;;
11171;SDS011;5642;50.830;12.082;2023-10-13T08:33:49;3.05;;;2.05;;
11171;SDS011;5642;50.830;12.082;2023-10-13T08:36:15;3.65;;;2.00;;
11171;SDS011;5642;50.830;12.082;2023-10-13T08:39:03;2.30;;;1.70;;
11171;SDS011;5642;50.830;12.082;2023-10-13T08:41:50;1.80;;;1.70;;
11171;SDS011;5642;50.830;12.082;2023-10-13T08:44:42;1.90;;;1.80;;
11171;SDS011;5642;50.830;12.082;2023-10-13T08:47:21;1.70;;;1.60;;
11171;SDS011;5642;50.830;12.082;2023-10-13T08:50:08;1.80;;;1.70;;
11171;SDS011;5642;50.830;12.082;2023-10-13T08:53:02;2.25;;;2.05;;
11171;SDS011;5642;50.830;12.082;2023-10-13T08:55:35;2.17;;;1.75;;
11171;SDS011;5642;50.830;12.082;2023-10-13T08:58:15;1.88;;;1.73;;
11171;SDS011;5642;50.830;12.082;2023-10-13T09:00:45;3.58;;;2.00;;
11171;SDS011;5642;50.830;12.082;2023-10-13T09:03:24;3.00;;;1.77;;
11171;SDS011;5642;50.830;12.082;2023-10-13T09:06:12;3.40;;;1.95;;
11171;SDS011;5642;50.830;12.082;2023-10-13T09:09:04;2.00;;;1.80;;
11171;SDS011;5642;50.830;12.082;2023-10-13T09:11:51;2.33;;;1.70;;
11171;SDS011;5642;50.830;12.082;2023-10-13T09:14:55;1.92;;;1.77;;
11171;SDS011;5642;50.830;12.082;2023-10-13T09:17:29;1.85;;;1.70;;
11171;SDS011;5642;50.830;12.082;2023-10-13T09:20:04;2.13;;;1.70;;
11171;SDS011;5642;50.830;12.082;2023-10-13T09:22:57;4.00;;;1.70;;
11171;SDS011;5642;50.830;12.082;2023-10-13T09:25:29;2.25;;;1.55;;
11171;SDS011;5642;50.830;12.082;2023-10-13T09:28:01;2.55;;;1.83;;
11171;SDS011;5642;50.830;12.082;2023-10-13T09:31:21;2.05;;;1.70;;
11171;SDS011;5642;50.830;12.082;2023-10-13T09:33:53;2.35;;;1.77;;
11171;SDS011;5642;50.830;12.082;2023-10-13T09:36:51;2.03;;;1.67;;
11171;SDS011;5642;50.830;12.082;2023-10-13T09:39:22;1.73;;;1.63;;
11171;SDS011;5642;50.830;12.082;2023-10-13T09:42:11;5.35;;;1.63;;
11171;SDS011;5642;50.830;12.082;2023-10-13T09:44:57;2.85;;;1.67;;
11171;SDS011;5642;50.830;12.082;2023-10-13T09:47:29;3.17;;;1.60;;
11171;SDS011;5642;50.830;12.082;2023-10-13T09:50:03;2.92;;;1.98;;
11171;SDS011;5642;50.830;12.082;2023-10-13T09:52:39;2.95;;;2.45;;
11171;SDS011;5642;50.830;12.082;2023-10-13T09:55:17;3.17;;;2.88;;
11171;SDS011;5642;50.830;12.082;2023-10-13T09:57:53;3.60;;;2.90;;
11171;SDS011;5642;50.830;12.082;2023-10-13T10:00:29;3.15;;;2.25;;
11171;SDS011;5642;50.830;12.082;2023-10-13T10:03:26;4.00;;;2.13;;
11171;SDS011;5642;50.830;12.082;2023-10-13T10:06:07;4.65;;;1.85;;
11171;SDS011;5642;50.830;12.082;2023-10-13T10:08:43;1.70;;;1.60;;
11171;SDS011;5642;50.830;12.082;2023-10-13T10:14:16;1.60;;;1.50;;
11171;SDS011;5642;50.830;12.082;2023-10-13T10:17:08;1.70;;;1.60;;
11171;SDS011;5642;50.830;12.082;2023-10-13T10:19:52;2.00;;;1.48;;
11171;SDS011;5642;50.830;12.082;2023-10-13T10:22:30;1.58;;;1.48;;
11171;SDS011;5642;50.830;12.082;2023-10-13T10:25:41;2.35;;;1.40;;
11171;SDS011;5642;50.830;12.082;2023-10-13T10:28:10;1.70;;;1.60;;
11171;SDS011;5642;50.830;12.082;2023-10-13T10:30:41;2.83;;;1.45;;
11171;SDS011;5642;50.830;12.082;2023-10-13T10:33:10;2.25;;;1.92;;
11171;SDS011;5642;50.830;12.082;2023-10-13T10:35:44;2.50;;;1.50;;
11171;SDS011;5642;50.830;12.082;2023-10-13T10:38:16;1.92;;;1.55;;
11171;SDS011;5642;50.830;12.082;2023-10-13T10:41:03;2.47;;;1.90;;
11171;SDS011;5642;50.830;12.082;2023-10-13T10:46:11;3.03;;;2.72;;
11171;SDS011;5642;50.830;12.082;2023-10-13T10:48:45;3.05;;;2.67;;
11171;SDS011;5642;50.830;12.082;2023-10-13T10:51:30;3.30;;;2.35;;
11171;SDS011;5642;50.830;12.082;2023-10-13T10:54:00;2.28;;;1.90;;
11171;SDS011;5642;50.830;12.082;2023-10-13T10:56:48;2.28;;;1.90;;
11171;SDS011;5642;50.830;12.082;2023-10-13T10:59:39;1.85;;;1.70;;
11171;SDS011;5642;50.830;12.082;2023-10-13T11:02:07;1.92;;;1.52;;
11171;SDS011;5642;50.830;12.082;2023-10-13T11:04:40;2.92;;;1.90;;
11171;SDS011;5642;50.830;12.082;2023-10-13T11:07:27;1.95;;;1.70;;
11171;SDS011;5642;50.830;12.082;2023-10-13T11:10:08;2.85;;;1.70;;
11171;SDS011;5642;50.830;12.082;2023-10-13T11:13:01;2.00;;;1.55;;
11171;SDS011;5642;50.830;12.082;2023-10-13T11:16:05;2.75;;;1.98;;
11171;SDS011;5642;50.830;12.082;2023-10-13T11:18:34;1.95;;;1.45;;
11171;SDS011;5642;50.830;12.082;2023-10-13T11:21:16;1.70;;;1.58;;
11171;SDS011;5642;50.830;12.082;2023-10-13T11:23:44;2.60;;;1.70;;
11171;SDS011;5642;50.830;12.082;2023-10-13T11:26:34;3.38;;;1.58;;
11171;SDS011;5642;50.830;12.082;2023-10-13T11:29:16;1.45;;;1.35;;
11171;SDS011;5642;50.830;12.082;2023-10-13T11:31:48;2.97;;;1.70;;
11171;SDS011;5642;50.830;12.082;2023-10-13T11:34:38;1.80;;;1.60;;
11171;SDS011;5642;50.830;12.082;2023-10-13T11:37:09;2.92;;;1.80;;
11171;SDS011;5642;50.830;12.082;2023-10-13T11:39:55;2.35;;;1.58;;
11171;SDS011;5642;50.830;12.082;2023-10-13T11:56:08;2.50;;;2.20;;
11171;SDS011;5642;50.830;12.082;2023-10-13T11:58:41;2.90;;;1.98;;
11171;SDS011;5642;50.830;12.082;2023-10-13T12:01:25;3.95;;;2.20;;
11171;SDS011;5642;50.830;12.082;2023-10-13T12:04:14;3.40;;;2.05;;
11171;SDS011;5642;50.830;12.082;2023-10-13T12:07:08;2.10;;;1.85;;
11171;SDS011;5642;50.830;12.082;2023-10-13T12:09:44;2.90;;;2.45;;
11171;SDS011;5642;50.830;12.082;2023-10-13T12:12:41;4.03;;;2.40;;
11171;SDS011;5642;50.830;12.082;2023-10-13T12:15:26;2.63;;;2.15;;
11171;SDS011;5642;50.830;12.082;2023-10-13T12:18:15;2.13;;;1.92;;
11171;SDS011;5642;50.830;12.082;2023-10-13T12:21:09;2.35;;;2.15;;
11171;SDS011;5642;50.830;12.082;2023-10-13T12:24:09;1.75;;;1.60;;
11171;SDS011;5642;50.830;12.082;2023-10-13T12:26:50;3.72;;;2.25;;
11171;SDS011;5642;50.830;12.082;2023-10-13T12:29:23;2.45;;;1.92;;
11171;SDS011;5642;50.830;12.082;2023-10-13T12:31:58;2.20;;;2.00;;
11171;SDS011;5642;50.830;12.082;2023-10-13T12:34:35;3.33;;;2.10;;
11171;SDS011;5642;50.830;12.082;2023-10-13T12:37:39;4.30;;;1.85;;
11171;SDS011;5642;50.830;12.082;2023-10-13T12:40:17;3.22;;;2.03;;
11171;SDS011;5642;50.830;12.082;2023-10-13T12:43:31;2.10;;;1.90;;
11171;SDS011;5642;50.830;12.082;2023-10-13T12:46:21;1.98;;;1.80;;
11171;SDS011;5642;50.830;12.082;2023-10-13T12:49:06;1.90;;;1.70;;
11171;SDS011;5642;50.830;12.082;2023-10-13T12:51:54;2.00;;;1.80;;
11171;SDS011;5642;50.830;12.082;2023-10-13T12:54:35;2.03;;;1.90;;
11171;SDS011;5642;50.830;12.082;2023-10-13T12:57:07;3.10;;;1.90;;
11171;SDS011;5642;50.830;12.082;2023-10-13T12:59:35;1.90;;;1.70;;
11171;SDS011;5642;50.830;12.082;2023-10-13T13:02:08;2.95;;;2.20;;
11171;SDS011;5642;50.830;12.082;2023-10-13T13:05:06;2.10;;;1.75;;
11171;SDS011;5642;50.830;12.082;2023-10-13T13:07:42;2.28;;;1.85;;
11171;SDS011;5642;50.830;12.082;2023-10-13T13:10:18;1.83;;;1.73;;
11171;SDS011;5642;50.830;12.082;2023-10-13T13:12:45;2.20;;;2.00;;
11171;SDS011;5642;50.830;12.082;2023-10-13T13:15:11;4.43;;;2.05;;
11171;SDS011;5642;50.830;12.082;2023-10-13T13:17:38;1.80;;;1.70;;
11171;SDS011;5642;50.830;12.082;2023-10-13T13:20:23;4.10;;;2.33;;
11171;SDS011;5642;50.830;12.082;2023-10-13T13:23:11;2.17;;;1.98;;
11171;SDS011;5642;50.830;12.082;2023-10-13T13:25:56;2.10;;;1.80;;
11171;SDS011;5642;50.830;12.082;2023-10-13T13:28:40;2.17;;;1.95;;
11171;SDS011;5642;50.830;12.082;2023-10-13T13:31:10;2.30;;;2.10;;
11171;SDS011;5642;50.830;12.082;2023-10-13T13:33:38;2.13;;;1.92;;
11171;SDS011;5642;50.830;12.082;2023-10-13T13:36:10;2.58;;;2.05;;
11171;SDS011;5642;50.830;12.082;2023-10-13T13:39:21;2.35;;;2.15;;
11171;SDS011;5642;50.830;12.082;2023-10-13T13:41:57;2.80;;;1.80;;
11171;SDS011;5642;50.830;12.082;2023-10-13T13:44:30;1.95;;;1.85;;
11171;SDS011;5642;50.830;12.082;2023-10-13T13:47:10;2.28;;;1.90;;
11171;SDS011;5642;50.830;12.082;2023-10-13T13:49:41;2.00;;;1.90;;
11171;SDS011;5642;50.830;12.082;2023-10-13T13:52:37;2.05;;;1.83;;
11171;SDS011;5642;50.830;12.082;2023-10-13T13:55:11;2.20;;;2.00;;
11171;SDS011;5642;50.830;12.082;2023-10-13T13:57:43;2.30;;;2.00;;
11171;SDS011;5642;50.830;12.082;2023-10-13T14:00:28;2.15;;;1.80;;
11171;SDS011;5642;50.830;12.082;2023-10-13T14:03:09;2.00;;;1.90;;
11171;SDS011;5642;50.830;12.082;2023-10-13T14:06:00;1.70;;;1.60;;
11171;SDS011;5642;50.830;12.082;2023-10-13T14:08:48;1.80;;;1.70;;
11171;SDS011;5642;50.830;12.082;2023-10-13T14:11:37;3.97;;;1.95;;
11171;SDS011;5642;50.830;12.082;2023-10-13T14:14:07;1.95;;;1.75;;
11171;SDS011;5642;50.830;12.082;2023-10-13T14:16:44;1.90;;;1.70;;
11171;SDS011;5642;50.830;12.082;2023-10-13T14:19:11;2.05;;;1.75;;
11171;SDS011;5642;50.830;12.082;2023-10-13T14:21:55;1.85;;;1.75;;
11171;SDS011;5642;50.830;12.082;2023-10-13T14:24:30;2.25;;;1.52;;
11171;SDS011;5642;50.830;12.082;2023-10-13T14:27:03;2.15;;;1.80;;
11171;SDS011;5642;50.830;12.082;2023-10-13T14:29:44;3.83;;;1.92;;
11171;SDS011;5642;50.830;12.082;2023-10-13T14:32:35;3.33;;;1.75;;
11171;SDS011;5642;50.830;12.082;2023-10-13T14:35:24;1.75;;;1.65;;
11171;SDS011;5642;50.830;12.082;2023-10-13T14:37:55;1.70;;;1.60;;
11171;SDS011;5642;50.830;12.082;2023-10-13T14:40:30;4.40;;;1.70;;
11171;SDS011;5642;50.830;12.082;2023-10-13T14:43:16;3.28;;;1.55;;
11171;SDS011;5642;50.830;12.082;2023-10-13T14:45:43;1.98;;;1.80;;
11171;SDS011;5642;50.830;12.082;2023-10-13T14:48:18;1.83;;;1.73;;
11171;SDS011;5642;50.830;12.082;2023-10-13T14:50:46;2.10;;;1.77;;
11171;SDS011;5642;50.830;12.082;2023-10-13T14:53:13;2.58;;;1.67;;
11171;SDS011;5642;50.830;12.082;2023-10-13T14:55:43;6.25;;;2.00;;
11171;SDS011;5642;50.830;12.082;2023-10-13T14:58:14;1.70;;;1.60;;
11171;SDS011;5642;50.830;12.082;2023-10-13T15:00:44;1.60;;;1.50;;
11171;SDS011;5642;50.830;12.082;2023-10-13T15:03:12;2.05;;;1.70;;
11171;SDS011;5642;50.830;12.082;2023-10-13T15:05:45;2.78;;;1.63;;
11171;SDS011;5642;50.830;12.082;2023-10-13T15:08:22;1.60;;;1.50;;
11171;SDS011;5642;50.830;12.082;2023-10-13T15:11:13;1.75;;;1.40;;
11171;SDS011;5642;50.830;12.082;2023-10-13T15:13:48;1.90;;;1.58;;
11171;SDS011;5642;50.830;12.082;2023-10-13T15:16:21;1.98;;;1.88;;
11171;SDS011;5642;50.830;12.082;2023-10-13T15:19:08;1.70;;;1.60;;
11171;SDS011;5642;50.830;12.082;2023-10-13T15:21:46;2.85;;;1.75;;
11171;SDS011;5642;50.830;12.082;2023-10-13T15:24:21;1.88;;;1.70;;
11171;SDS011;5642;50.830;12.082;2023-10-13T15:27:08;1.63;;;1.52;;
11171;SDS011;5642;50.830;12.082;2023-10-13T15:29:34;2.30;;;1.73;;
11171;SDS011;5642;50.830;12.082;2023-10-13T15:32:25;1.85;;;1.65;;
11171;SDS011;5642;50.830;12.082;2023-10-13T15:35:28;3.03;;;1.65;;
11171;SDS011;5642;50.830;12.082;2023-10-13T15:38:08;1.90;;;1.73;;
11171;SDS011;5642;50.830;12.082;2023-10-13T15:40:58;2.10;;;1.90;;
11171;SDS011;5642;50.830;12.082;2023-10-13T15:43:46;1.92;;;1.73;;
11171;SDS011;5642;50.830;12.082;2023-10-13T15:46:16;1.90;;;1.70;;
11171;SDS011;5642;50.830;12.082;2023-10-13T15:49:05;1.77;;;1.65;;
11171;SDS011;5642;50.830;12.082;2023-10-13T15:51:32;2.03;;;1.73;;
11171;SDS011;5642;50.830;12.082;2023-10-13T15:54:02;1.75;;;1.65;;
11171;SDS011;5642;50.830;12.082;2023-10-13T15:57:02;3.15;;;1.60;;
11171;SDS011;5642;50.830;12.082;2023-10-13T15:59:49;1.80;;;1.70;;
11171;SDS011;5642;50.830;12.082;2023-10-13T16:02:21;1.88;;;1.60;;
11171;SDS011;5642;50.830;12.082;2023-10-13T16:04:54;1.70;;;1.60;;
11171;SDS011;5642;50.830;12.082;2023-10-13T16:07:29;2.03;;;1.70;;
11171;SDS011;5642;50.830;12.082;2023-10-13T16:10:05;1.40;;;1.30;;
11171;SDS011;5642;50.830;12.082;2023-10-13T16:12:42;1.70;;;1.60;;
11171;SDS011;5642;50.830;12.082;2023-10-13T16:15:12;1.55;;;1.45;;
11171;SDS011;5642;50.830;12.082;2023-10-13T16:17:40;2.80;;;1.77;;
11171;SDS011;5642;50.830;12.082;2023-10-13T16:20:07;1.55;;;1.45;;
11171;SDS011;5642;50.830;12.082;2023-10-13T16:22:48;1.70;;;1.60;;
11171;SDS011;5642;50.830;12.082;2023-10-13T16:25:15;2.40;;;1.70;;
11171;SDS011;5642;50.830;12.082;2023-10-13T16:27:42;2.15;;;1.80;;